Terminal Aerodrome Forecast
Issued by NWS St Louis, MO

Home | Current Version | Previous Version | Text Only | Print | Product List | Glossary On
Versions: 1 2 3 4 5 6 7 8 9 10 11 12 13 14 15
540
FTUS43 KLSX 240520
TAFCOU
TAF
KCOU 240520Z 2406/2506 32007KT P6SM FEW250
     FM241700 32010KT P6SM SKC
     FM250000 31005KT P6SM FEW250=

USA.gov is the U.S. government's official web portal to all federal, state and local government web resources and services.